sensor_id;sensor_type;location;lat;lon;timestamp;pressure;altitude;pressure_sealevel;temperature;humidity
33265;BME280;31404;53.974;-1.086;2023-07-29T00:00:35;100159.66;;;19.71;78.88
33265;BME280;31404;53.974;-1.086;2023-07-29T00:05:35;100163.19;;;18.68;84.37
33265;BME280;31404;53.974;-1.086;2023-07-29T00:10:36;100159.89;;;18.68;84.18
33265;BME280;31404;53.974;-1.086;2023-07-29T00:15:35;100156.52;;;19.04;81.80
33265;BME280;31404;53.974;-1.086;2023-07-29T00:20:35;100149.16;;;19.31;81.39
33265;BME280;31404;53.974;-1.086;2023-07-29T00:25:35;100135.96;;;18.25;87.54
33265;BME280;31404;53.974;-1.086;2023-07-29T00:30:35;100143.90;;;17.57;90.50
33265;BME280;31404;53.974;-1.086;2023-07-29T00:35:35;100149.65;;;17.48;92.50
33265;BME280;31404;53.974;-1.086;2023-07-29T00:40:35;100142.68;;;17.73;90.64
33265;BME280;31404;53.974;-1.086;2023-07-29T00:45:34;100138.62;;;17.41;92.19
33265;BME280;31404;53.974;-1.086;2023-07-29T00:50:34;100145.46;;;17.32;93.03
33265;BME280;31404;53.974;-1.086;2023-07-29T00:55:34;100141.65;;;17.83;89.36
33265;BME280;31404;53.974;-1.086;2023-07-29T01:00:34;100133.80;;;16.67;95.31
33265;BME280;31404;53.974;-1.086;2023-07-29T01:10:40;100128.45;;;16.13;99.25
33265;BME280;31404;53.974;-1.086;2023-07-29T01:25:35;100125.38;;;15.61;99.98
33265;BME280;31404;53.974;-1.086;2023-07-29T01:35:39;100130.46;;;16.65;95.54
33265;BME280;31404;53.974;-1.086;2023-07-29T01:40:35;100124.81;;;17.15;91.49
33265;BME280;31404;53.974;-1.086;2023-07-29T01:45:34;100120.45;;;15.59;100.00
33265;BME280;31404;53.974;-1.086;2023-07-29T01:50:35;100121.82;;;16.41;95.18
33265;BME280;31404;53.974;-1.086;2023-07-29T01:55:35;100121.45;;;16.43;96.42
33265;BME280;31404;53.974;-1.086;2023-07-29T02:00:36;100118.43;;;17.32;89.71
33265;BME280;31404;53.974;-1.086;2023-07-29T02:05:35;100114.16;;;17.85;85.74
33265;BME280;31404;53.974;-1.086;2023-07-29T02:10:30;100111.15;;;18.20;84.27
33265;BME280;31404;53.974;-1.086;2023-07-29T02:15:34;100117.22;;;18.04;83.17
33265;BME280;31404;53.974;-1.086;2023-07-29T02:20:35;100108.37;;;18.63;81.31
33265;BME280;31404;53.974;-1.086;2023-07-29T02:25:35;100103.79;;;18.77;80.49
33265;BME280;31404;53.974;-1.086;2023-07-29T02:30:34;100094.16;;;18.18;84.58
33265;BME280;31404;53.974;-1.086;2023-07-29T02:35:29;100096.28;;;18.08;84.01
33265;BME280;31404;53.974;-1.086;2023-07-29T02:40:35;100104.53;;;17.63;87.23
33265;BME280;31404;53.974;-1.086;2023-07-29T02:45:34;100107.45;;;16.70;91.05
33265;BME280;31404;53.974;-1.086;2023-07-29T02:50:34;100107.77;;;16.57;92.27
33265;BME280;31404;53.974;-1.086;2023-07-29T02:55:34;100103.24;;;15.76;96.64
33265;BME280;31404;53.974;-1.086;2023-07-29T03:00:34;100097.39;;;16.14;93.94
33265;BME280;31404;53.974;-1.086;2023-07-29T03:05:35;100097.21;;;16.27;93.75
33265;BME280;31404;53.974;-1.086;2023-07-29T03:10:35;100095.61;;;15.27;98.76
33265;BME280;31404;53.974;-1.086;2023-07-29T03:15:35;100091.53;;;15.75;95.93
33265;BME280;31404;53.974;-1.086;2023-07-29T03:20:34;100092.16;;;16.33;91.31
33265;BME280;31404;53.974;-1.086;2023-07-29T03:25:34;100083.93;;;16.06;93.47
33265;BME280;31404;53.974;-1.086;2023-07-29T03:30:34;100082.38;;;15.93;93.07
33265;BME280;31404;53.974;-1.086;2023-07-29T03:35:34;100077.86;;;15.96;92.44
33265;BME280;31404;53.974;-1.086;2023-07-29T03:40:34;100074.62;;;15.96;91.92
33265;BME280;31404;53.974;-1.086;2023-07-29T03:45:35;100076.54;;;16.43;89.60
33265;BME280;31404;53.974;-1.086;2023-07-29T03:50:36;100077.84;;;16.06;90.95
33265;BME280;31404;53.974;-1.086;2023-07-29T03:55:35;100075.91;;;17.22;86.34
33265;BME280;31404;53.974;-1.086;2023-07-29T04:00:35;100076.11;;;17.76;82.47
33265;BME280;31404;53.974;-1.086;2023-07-29T04:05:35;100082.66;;;17.05;85.19
33265;BME280;31404;53.974;-1.086;2023-07-29T04:10:35;100086.31;;;16.13;88.23
33265;BME280;31404;53.974;-1.086;2023-07-29T04:15:34;100084.18;;;16.03;89.97
33265;BME280;31404;53.974;-1.086;2023-07-29T04:20:34;100088.02;;;16.26;89.64
33265;BME280;31404;53.974;-1.086;2023-07-29T04:25:34;100088.00;;;17.03;85.69
33265;BME280;31404;53.974;-1.086;2023-07-29T04:30:35;100080.47;;;16.00;89.53
33265;BME280;31404;53.974;-1.086;2023-07-29T04:35:35;100079.43;;;16.58;87.99
33265;BME280;31404;53.974;-1.086;2023-07-29T04:40:35;100075.85;;;16.65;86.19
33265;BME280;31404;53.974;-1.086;2023-07-29T04:45:35;100070.85;;;16.82;84.59
33265;BME280;31404;53.974;-1.086;2023-07-29T04:50:35;100066.60;;;17.20;82.29
33265;BME280;31404;53.974;-1.086;2023-07-29T04:55:35;100074.20;;;17.38;81.72
33265;BME280;31404;53.974;-1.086;2023-07-29T05:00:35;100077.35;;;17.01;82.57
33265;BME280;31404;53.974;-1.086;2023-07-29T05:05:35;100085.85;;;16.76;83.55
33265;BME280;31404;53.974;-1.086;2023-07-29T05:10:35;100084.13;;;15.62;89.27
33265;BME280;31404;53.974;-1.086;2023-07-29T05:15:35;100097.15;;;16.74;86.62
33265;BME280;31404;53.974;-1.086;2023-07-29T05:20:34;100099.81;;;16.95;85.22
33265;BME280;31404;53.974;-1.086;2023-07-29T05:25:37;100100.77;;;15.94;89.40
33265;BME280;31404;53.974;-1.086;2023-07-29T05:30:35;100097.08;;;15.16;94.90
33265;BME280;31404;53.974;-1.086;2023-07-29T05:35:34;100090.92;;;15.35;95.09
33265;BME280;31404;53.974;-1.086;2023-07-29T05:40:34;100091.11;;;14.75;98.57
33265;BME280;31404;53.974;-1.086;2023-07-29T05:45:34;100090.77;;;14.27;100.00
33265;BME280;31404;53.974;-1.086;2023-07-29T05:50:34;100087.74;;;14.41;100.00
33265;BME280;31404;53.974;-1.086;2023-07-29T05:55:34;100090.54;;;14.61;100.00
33265;BME280;31404;53.974;-1.086;2023-07-29T06:00:28;100093.20;;;14.99;98.97
33265;BME280;31404;53.974;-1.086;2023-07-29T06:05:34;100090.82;;;15.11;98.25
33265;BME280;31404;53.974;-1.086;2023-07-29T06:10:35;100091.95;;;15.10;99.20
33265;BME280;31404;53.974;-1.086;2023-07-29T06:15:35;100094.88;;;14.84;98.79
33265;BME280;31404;53.974;-1.086;2023-07-29T06:20:35;100095.92;;;15.09;98.31
33265;BME280;31404;53.974;-1.086;2023-07-29T06:25:34;100091.86;;;15.55;95.26
33265;BME280;31404;53.974;-1.086;2023-07-29T06:30:34;100097.55;;;14.05;100.00
33265;BME280;31404;53.974;-1.086;2023-07-29T06:35:34;100101.84;;;14.08;100.00
33265;BME280;31404;53.974;-1.086;2023-07-29T06:40:35;100097.26;;;14.54;99.73
33265;BME280;31404;53.974;-1.086;2023-07-29T06:45:35;100095.44;;;15.37;94.13
33265;BME280;31404;53.974;-1.086;2023-07-29T06:50:34;100093.50;;;15.68;91.90
33265;BME280;31404;53.974;-1.086;2023-07-29T06:55:35;100094.45;;;15.11;94.43
33265;BME280;31404;53.974;-1.086;2023-07-29T07:00:35;100094.24;;;16.24;89.90
33265;BME280;31404;53.974;-1.086;2023-07-29T07:05:35;100088.28;;;16.80;85.40
33265;BME280;31404;53.974;-1.086;2023-07-29T07:10:34;100089.19;;;16.72;86.87
33265;BME280;31404;53.974;-1.086;2023-07-29T07:15:34;100087.30;;;16.07;89.79
33265;BME280;31404;53.974;-1.086;2023-07-29T07:20:35;100095.08;;;16.20;88.11
33265;BME280;31404;53.974;-1.086;2023-07-29T07:25:35;100098.68;;;15.48;93.25
33265;BME280;31404;53.974;-1.086;2023-07-29T07:30:35;100106.35;;;16.36;87.50
33265;BME280;31404;53.974;-1.086;2023-07-29T07:35:34;100092.86;;;16.81;84.06
33265;BME280;31404;53.974;-1.086;2023-07-29T07:40:35;100099.26;;;16.88;85.23
33265;BME280;31404;53.974;-1.086;2023-07-29T07:45:34;100092.81;;;15.42;91.54
33265;BME280;31404;53.974;-1.086;2023-07-29T07:50:36;100098.85;;;14.16;95.62
33265;BME280;31404;53.974;-1.086;2023-07-29T07:55:35;100091.41;;;14.35;99.75
33265;BME280;31404;53.974;-1.086;2023-07-29T08:00:34;100097.17;;;15.29;94.84
33265;BME280;31404;53.974;-1.086;2023-07-29T08:05:35;100091.06;;;15.18;92.81
33265;BME280;31404;53.974;-1.086;2023-07-29T08:10:35;100096.14;;;16.04;89.72
33265;BME280;31404;53.974;-1.086;2023-07-29T08:15:35;100098.85;;;15.32;91.05
33265;BME280;31404;53.974;-1.086;2023-07-29T08:20:35;100092.98;;;15.77;89.80
33265;BME280;31404;53.974;-1.086;2023-07-29T08:25:35;100099.21;;;14.73;95.01
33265;BME280;31404;53.974;-1.086;2023-07-29T08:30:35;100089.11;;;16.18;89.04
33265;BME280;31404;53.974;-1.086;2023-07-29T08:35:35;100093.28;;;15.21;93.79
33265;BME280;31404;53.974;-1.086;2023-07-29T08:40:38;100095.40;;;15.42;90.24
33265;BME280;31404;53.974;-1.086;2023-07-29T08:45:35;100093.29;;;15.56;87.97
33265;BME280;31404;53.974;-1.086;2023-07-29T08:50:36;100091.93;;;16.20;84.57
33265;BME280;31404;53.974;-1.086;2023-07-29T08:55:35;100086.66;;;15.99;84.61
33265;BME280;31404;53.974;-1.086;2023-07-29T09:00:35;100087.57;;;15.94;85.73
33265;BME280;31404;53.974;-1.086;2023-07-29T09:05:35;100097.62;;;15.83;86.20
33265;BME280;31404;53.974;-1.086;2023-07-29T09:10:35;100103.61;;;14.65;92.23
33265;BME280;31404;53.974;-1.086;2023-07-29T09:15:36;100107.46;;;15.32;90.09
33265;BME280;31404;53.974;-1.086;2023-07-29T09:20:35;100115.38;;;14.80;92.54
33265;BME280;31404;53.974;-1.086;2023-07-29T09:25:34;100114.13;;;14.66;92.71
33265;BME280;31404;53.974;-1.086;2023-07-29T09:30:34;100103.51;;;14.64;93.33
33265;BME280;31404;53.974;-1.086;2023-07-29T09:35:35;100110.07;;;14.54;92.09
33265;BME280;31404;53.974;-1.086;2023-07-29T09:40:35;100113.66;;;16.41;86.23
33265;BME280;31404;53.974;-1.086;2023-07-29T09:45:35;100109.85;;;14.50;92.09
33265;BME280;31404;53.974;-1.086;2023-07-29T09:50:35;100109.06;;;14.13;92.67
33265;BME280;31404;53.974;-1.086;2023-07-29T09:55:35;100108.25;;;14.09;94.13
33265;BME280;31404;53.974;-1.086;2023-07-29T10:00:35;100095.37;;;13.68;93.14
33265;BME280;31404;53.974;-1.086;2023-07-29T10:05:34;100091.39;;;15.82;84.26
33265;BME280;31404;53.974;-1.086;2023-07-29T10:10:34;100082.43;;;15.47;87.76
33265;BME280;31404;53.974;-1.086;2023-07-29T10:15:34;100081.86;;;16.33;82.30
33265;BME280;31404;53.974;-1.086;2023-07-29T10:20:35;100091.15;;;16.30;77.38
33265;BME280;31404;53.974;-1.086;2023-07-29T10:30:35;100086.36;;;15.67;82.26
33265;BME280;31404;53.974;-1.086;2023-07-29T10:35:35;100087.97;;;17.34;76.61
33265;BME280;31404;53.974;-1.086;2023-07-29T10:50:34;100098.48;;;17.02;72.17
33265;BME280;31404;53.974;-1.086;2023-07-29T10:55:35;100113.43;;;16.16;74.47
33265;BME280;31404;53.974;-1.086;2023-07-29T11:00:35;100110.50;;;14.77;87.45
33265;BME280;31404;53.974;-1.086;2023-07-29T11:15:35;100122.46;;;13.99;90.04
33265;BME280;31404;53.974;-1.086;2023-07-29T11:20:34;100125.35;;;14.18;91.76
33265;BME280;31404;53.974;-1.086;2023-07-29T11:25:34;100126.92;;;15.04;90.10
33265;BME280;31404;53.974;-1.086;2023-07-29T11:30:34;100128.52;;;14.55;82.97
33265;BME280;31404;53.974;-1.086;2023-07-29T11:35:34;100130.72;;;14.58;78.77
33265;BME280;31404;53.974;-1.086;2023-07-29T11:40:35;100124.56;;;16.09;72.95
33265;BME280;31404;53.974;-1.086;2023-07-29T11:45:35;100125.84;;;15.75;74.61
33265;BME280;31404;53.974;-1.086;2023-07-29T11:50:35;100122.69;;;16.12;72.77
33265;BME280;31404;53.974;-1.086;2023-07-29T11:55:35;100118.34;;;17.64;68.60
33265;BME280;31404;53.974;-1.086;2023-07-29T12:00:35;100118.80;;;17.31;68.39
33265;BME280;31404;53.974;-1.086;2023-07-29T12:05:35;100112.72;;;17.83;67.61
33265;BME280;31404;53.974;-1.086;2023-07-29T12:10:35;100115.72;;;18.13;65.76
33265;BME280;31404;53.974;-1.086;2023-07-29T12:15:34;100111.05;;;17.59;66.80
33265;BME280;31404;53.974;-1.086;2023-07-29T12:20:34;100114.80;;;17.74;65.67
33265;BME280;31404;53.974;-1.086;2023-07-29T12:25:35;100113.86;;;15.88;69.52
33265;BME280;31404;53.974;-1.086;2023-07-29T12:35:36;100114.35;;;17.17;67.43
33265;BME280;31404;53.974;-1.086;2023-07-29T12:45:36;100116.67;;;16.98;62.32
33265;BME280;31404;53.974;-1.086;2023-07-29T12:50:34;100124.48;;;17.57;62.74
33265;BME280;31404;53.974;-1.086;2023-07-29T12:55:34;100110.51;;;18.11;60.95
33265;BME280;31404;53.974;-1.086;2023-07-29T13:00:34;100116.19;;;17.73;62.30
33265;BME280;31404;53.974;-1.086;2023-07-29T13:05:34;100118.93;;;16.90;62.54
33265;BME280;31404;53.974;-1.086;2023-07-29T13:10:34;100123.95;;;17.66;62.08
33265;BME280;31404;53.974;-1.086;2023-07-29T13:15:34;100129.74;;;17.93;59.53
33265;BME280;31404;53.974;-1.086;2023-07-29T13:20:34;100128.77;;;16.24;67.55
33265;BME280;31404;53.974;-1.086;2023-07-29T13:25:34;100130.70;;;16.41;69.87
33265;BME280;31404;53.974;-1.086;2023-07-29T13:30:35;100124.14;;;15.81;65.77
33265;BME280;31404;53.974;-1.086;2023-07-29T13:35:35;100134.41;;;16.06;66.24
33265;BME280;31404;53.974;-1.086;2023-07-29T13:40:35;100134.62;;;16.73;64.87
33265;BME280;31404;53.974;-1.086;2023-07-29T13:45:35;100140.41;;;17.82;63.20
33265;BME280;31404;53.974;-1.086;2023-07-29T13:50:35;100140.38;;;17.18;64.34
33265;BME280;31404;53.974;-1.086;2023-07-29T13:55:35;100141.92;;;18.01;62.46
33265;BME280;31404;53.974;-1.086;2023-07-29T14:00:35;100138.99;;;18.18;62.32
33265;BME280;31404;53.974;-1.086;2023-07-29T14:05:35;100136.07;;;17.90;60.91
33265;BME280;31404;53.974;-1.086;2023-07-29T14:10:35;100136.53;;;18.24;61.17
33265;BME280;31404;53.974;-1.086;2023-07-29T14:15:35;100145.79;;;17.44;63.37
33265;BME280;31404;53.974;-1.086;2023-07-29T14:20:34;100140.10;;;17.12;64.60
33265;BME280;31404;53.974;-1.086;2023-07-29T14:25:34;100146.55;;;16.65;65.48
33265;BME280;31404;53.974;-1.086;2023-07-29T14:30:34;100161.41;;;16.56;66.11
33265;BME280;31404;53.974;-1.086;2023-07-29T14:35:35;100155.74;;;17.65;64.49
33265;BME280;31404;53.974;-1.086;2023-07-29T14:40:34;100167.25;;;17.66;62.33
33265;BME280;31404;53.974;-1.086;2023-07-29T14:45:34;100155.34;;;17.49;63.29
33265;BME280;31404;53.974;-1.086;2023-07-29T14:50:35;100157.89;;;17.42;64.09
33265;BME280;31404;53.974;-1.086;2023-07-29T14:55:36;100164.24;;;16.42;65.30
33265;BME280;31404;53.974;-1.086;2023-07-29T15:00:35;100158.31;;;16.35;65.98
33265;BME280;31404;53.974;-1.086;2023-07-29T15:05:31;100162.52;;;16.97;65.19
33265;BME280;31404;53.974;-1.086;2023-07-29T15:10:34;100164.55;;;17.68;63.43
33265;BME280;31404;53.974;-1.086;2023-07-29T15:15:34;100167.75;;;16.97;65.00
33265;BME280;31404;53.974;-1.086;2023-07-29T15:20:35;100160.06;;;17.58;63.69
33265;BME280;31404;53.974;-1.086;2023-07-29T15:25:34;100159.82;;;18.69;61.00
33265;BME280;31404;53.974;-1.086;2023-07-29T15:30:36;100166.85;;;17.91;62.85
33265;BME280;31404;53.974;-1.086;2023-07-29T15:35:37;100158.25;;;18.22;61.84
33265;BME280;31404;53.974;-1.086;2023-07-29T15:40:35;100157.03;;;18.15;62.39
33265;BME280;31404;53.974;-1.086;2023-07-29T15:45:34;100165.81;;;18.21;63.15
33265;BME280;31404;53.974;-1.086;2023-07-29T15:50:35;100164.15;;;18.21;63.61
33265;BME280;31404;53.974;-1.086;2023-07-29T15:55:35;100173.44;;;16.42;68.00
33265;BME280;31404;53.974;-1.086;2023-07-29T16:00:35;100159.79;;;16.82;66.56
33265;BME280;31404;53.974;-1.086;2023-07-29T16:05:36;100162.68;;;16.98;67.35
33265;BME280;31404;53.974;-1.086;2023-07-29T16:10:35;100167.15;;;17.38;65.31
33265;BME280;31404;53.974;-1.086;2023-07-29T16:15:35;100161.60;;;17.65;66.44
33265;BME280;31404;53.974;-1.086;2023-07-29T16:20:35;100156.66;;;18.29;63.16
33265;BME280;31404;53.974;-1.086;2023-07-29T16:25:35;100158.44;;;16.92;67.17
33265;BME280;31404;53.974;-1.086;2023-07-29T16:30:35;100163.80;;;17.02;66.19
33265;BME280;31404;53.974;-1.086;2023-07-29T16:35:35;100172.12;;;17.40;65.29
33265;BME280;31404;53.974;-1.086;2023-07-29T16:40:35;100169.17;;;16.17;68.82
33265;BME280;31404;53.974;-1.086;2023-07-29T16:45:35;100176.09;;;17.30;65.77
33265;BME280;31404;53.974;-1.086;2023-07-29T16:50:34;100175.73;;;17.20;64.26
33265;BME280;31404;53.974;-1.086;2023-07-29T16:55:34;100189.07;;;15.42;68.43
33265;BME280;31404;53.974;-1.086;2023-07-29T17:00:33;100188.26;;;16.24;67.72
33265;BME280;31404;53.974;-1.086;2023-07-29T17:05:35;100192.43;;;15.57;69.14
33265;BME280;31404;53.974;-1.086;2023-07-29T17:10:35;100180.16;;;15.31;70.69
33265;BME280;31404;53.974;-1.086;2023-07-29T17:15:35;100177.55;;;15.20;73.21
33265;BME280;31404;53.974;-1.086;2023-07-29T17:20:34;100181.57;;;15.67;71.40
33265;BME280;31404;53.974;-1.086;2023-07-29T17:25:35;100196.50;;;15.25;74.07
33265;BME280;31404;53.974;-1.086;2023-07-29T17:30:34;100194.49;;;16.31;72.07
33265;BME280;31404;53.974;-1.086;2023-07-29T17:35:34;100198.71;;;15.48;75.78
33265;BME280;31404;53.974;-1.086;2023-07-29T17:40:35;100195.72;;;15.87;75.22
33265;BME280;31404;53.974;-1.086;2023-07-29T17:45:34;100205.63;;;16.03;73.65
33265;BME280;31404;53.974;-1.086;2023-07-29T17:50:34;100217.63;;;14.69;83.60
33265;BME280;31404;53.974;-1.086;2023-07-29T17:55:36;100227.03;;;15.54;86.33
33265;BME280;31404;53.974;-1.086;2023-07-29T18:00:34;100217.42;;;15.65;86.24
33265;BME280;31404;53.974;-1.086;2023-07-29T18:05:35;100214.56;;;17.18;79.50
33265;BME280;31404;53.974;-1.086;2023-07-29T18:15:35;100212.68;;;17.17;78.75
33265;BME280;31404;53.974;-1.086;2023-07-29T18:20:34;100218.68;;;17.63;76.37
33265;BME280;31404;53.974;-1.086;2023-07-29T18:25:39;100220.58;;;17.57;75.78
33265;BME280;31404;53.974;-1.086;2023-07-29T18:30:35;100219.74;;;17.26;75.87
33265;BME280;31404;53.974;-1.086;2023-07-29T18:35:34;100221.58;;;16.77;76.79
33265;BME280;31404;53.974;-1.086;2023-07-29T18:40:38;100221.87;;;16.61;78.63
33265;BME280;31404;53.974;-1.086;2023-07-29T18:45:35;100221.03;;;17.13;76.56
33265;BME280;31404;53.974;-1.086;2023-07-29T18:55:34;100226.49;;;16.80;79.19
33265;BME280;31404;53.974;-1.086;2023-07-29T19:00:34;100233.88;;;18.09;73.68
33265;BME280;31404;53.974;-1.086;2023-07-29T19:05:34;100230.64;;;19.15;72.97
33265;BME280;31404;53.974;-1.086;2023-07-29T19:10:34;100236.59;;;18.19;69.04
33265;BME280;31404;53.974;-1.086;2023-07-29T19:15:34;100235.96;;;16.72;71.35
33265;BME280;31404;53.974;-1.086;2023-07-29T19:20:34;100231.34;;;16.93;70.89
33265;BME280;31404;53.974;-1.086;2023-07-29T19:25:35;100232.94;;;16.89;70.57
33265;BME280;31404;53.974;-1.086;2023-07-29T19:30:34;100232.25;;;17.82;67.80
33265;BME280;31404;53.974;-1.086;2023-07-29T19:35:35;100223.38;;;18.79;65.00
33265;BME280;31404;53.974;-1.086;2023-07-29T19:40:35;100230.23;;;16.60;70.24
33265;BME280;31404;53.974;-1.086;2023-07-29T19:45:35;100232.42;;;18.26;66.14
33265;BME280;31404;53.974;-1.086;2023-07-29T19:50:35;100230.73;;;16.70;70.51
33265;BME280;31404;53.974;-1.086;2023-07-29T19:55:35;100228.48;;;15.06;75.52
33265;BME280;31404;53.974;-1.086;2023-07-29T20:00:34;100225.44;;;15.96;74.51
33265;BME280;31404;53.974;-1.086;2023-07-29T20:05:34;100223.11;;;16.15;73.22
33265;BME280;31404;53.974;-1.086;2023-07-29T20:10:35;100235.45;;;17.43;69.14
33265;BME280;31404;53.974;-1.086;2023-07-29T20:15:34;100236.00;;;15.85;74.83
33265;BME280;31404;53.974;-1.086;2023-07-29T20:20:35;100245.80;;;15.79;75.45
33265;BME280;31404;53.974;-1.086;2023-07-29T20:25:34;100242.50;;;15.94;74.67
33265;BME280;31404;53.974;-1.086;2023-07-29T20:30:34;100241.27;;;16.74;71.32
33265;BME280;31404;53.974;-1.086;2023-07-29T20:35:34;100249.19;;;16.20;73.79
33265;BME280;31404;53.974;-1.086;2023-07-29T20:40:34;100248.17;;;16.25;73.65
33265;BME280;31404;53.974;-1.086;2023-07-29T20:45:35;100253.64;;;16.17;74.23
33265;BME280;31404;53.974;-1.086;2023-07-29T20:55:34;100263.80;;;17.94;68.34
33265;BME280;31404;53.974;-1.086;2023-07-29T21:00:34;100259.65;;;17.32;69.38
33265;BME280;31404;53.974;-1.086;2023-07-29T21:05:34;100269.51;;;17.10;70.15
33265;BME280;31404;53.974;-1.086;2023-07-29T21:10:34;100262.43;;;17.18;69.86
33265;BME280;31404;53.974;-1.086;2023-07-29T21:15:34;100257.42;;;16.77;72.09
33265;BME280;31404;53.974;-1.086;2023-07-29T21:20:34;100257.96;;;16.16;75.29
33265;BME280;31404;53.974;-1.086;2023-07-29T21:25:34;100258.21;;;15.49;78.70
33265;BME280;31404;53.974;-1.086;2023-07-29T21:30:34;100262.18;;;15.50;78.44
33265;BME280;31404;53.974;-1.086;2023-07-29T21:35:34;100266.30;;;15.79;77.66
33265;BME280;31404;53.974;-1.086;2023-07-29T21:40:35;100266.72;;;15.40;79.27
33265;BME280;31404;53.974;-1.086;2023-07-29T21:45:35;100270.65;;;15.38;78.87
33265;BME280;31404;53.974;-1.086;2023-07-29T21:50:35;100270.41;;;16.46;74.77
33265;BME280;31404;53.974;-1.086;2023-07-29T22:00:35;100272.39;;;15.06;79.84
33265;BME280;31404;53.974;-1.086;2023-07-29T22:05:34;100272.11;;;15.07;79.50
33265;BME280;31404;53.974;-1.086;2023-07-29T22:15:34;100280.91;;;14.61;81.82
33265;BME280;31404;53.974;-1.086;2023-07-29T22:20:35;100278.79;;;15.47;79.06
33265;BME280;31404;53.974;-1.086;2023-07-29T22:25:35;100281.68;;;14.48;83.33
33265;BME280;31404;53.974;-1.086;2023-07-29T22:30:35;100288.81;;;14.55;82.58
33265;BME280;31404;53.974;-1.086;2023-07-29T22:35:34;100287.19;;;14.88;80.44
33265;BME280;31404;53.974;-1.086;2023-07-29T22:40:34;100284.68;;;15.82;77.48
33265;BME280;31404;53.974;-1.086;2023-07-29T22:45:34;100292.53;;;15.80;76.52
33265;BME280;31404;53.974;-1.086;2023-07-29T22:50:35;100297.85;;;16.27;74.77
33265;BME280;31404;53.974;-1.086;2023-07-29T22:55:35;100292.94;;;17.24;72.44
33265;BME280;31404;53.974;-1.086;2023-07-29T23:00:36;100291.69;;;16.35;76.60
33265;BME280;31404;53.974;-1.086;2023-07-29T23:05:36;100294.14;;;16.28;75.96
33265;BME280;31404;53.974;-1.086;2023-07-29T23:10:35;100299.61;;;15.89;78.40
33265;BME280;31404;53.974;-1.086;2023-07-29T23:15:35;100301.12;;;16.55;78.04
33265;BME280;31404;53.974;-1.086;2023-07-29T23:20:35;100308.89;;;14.47;86.36
33265;BME280;31404;53.974;-1.086;2023-07-29T23:25:34;100307.94;;;15.01;83.27
33265;BME280;31404;53.974;-1.086;2023-07-29T23:30:35;100304.25;;;15.02;84.26
33265;BME280;31404;53.974;-1.086;2023-07-29T23:35:35;100309.98;;;14.38;85.86
33265;BME280;31404;53.974;-1.086;2023-07-29T23:40:35;100304.58;;;15.16;83.64
33265;BME280;31404;53.974;-1.086;2023-07-29T23:45:34;100303.33;;;15.45;81.48
33265;BME280;31404;53.974;-1.086;2023-07-29T23:50:34;100300.79;;;15.14;81.99
33265;BME280;31404;53.974;-1.086;2023-07-29T23:55:34;100300.23;;;15.57;80.77
